sensor_id;sensor_type;location;lat;lon;timestamp;pressure;altitude;pressure_sealevel;temperature;humidity
59939;BME280;45801;51.810;19.444;2023-04-19T00:02:25;99520.72;;;11.23;66.89
59939;BME280;45801;51.810;19.444;2023-04-19T00:04:52;99517.68;;;11.22;66.63
59939;BME280;45801;51.810;19.444;2023-04-19T00:07:19;99510.84;;;11.22;66.67
59939;BME280;45801;51.810;19.444;2023-04-19T00:09:45;99507.58;;;11.23;66.50
59939;BME280;45801;51.810;19.444;2023-04-19T00:12:12;99505.63;;;11.23;66.53
59939;BME280;45801;51.810;19.444;2023-04-19T00:14:38;99506.39;;;11.20;66.43
59939;BME280;45801;51.810;19.444;2023-04-19T00:17:05;99506.22;;;11.16;66.68
59939;BME280;45801;51.810;19.444;2023-04-19T00:19:31;99502.48;;;11.07;66.90
59939;BME280;45801;51.810;19.444;2023-04-19T00:21:58;99497.60;;;10.96;66.95
59939;BME280;45801;51.810;19.444;2023-04-19T00:24:24;99498.21;;;10.91;67.61
59939;BME280;45801;51.810;19.444;2023-04-19T00:26:51;99498.88;;;10.82;67.93
59939;BME280;45801;51.810;19.444;2023-04-19T00:29:17;99496.00;;;10.76;67.81
59939;BME280;45801;51.810;19.444;2023-04-19T00:31:44;99493.20;;;10.76;68.32
59939;BME280;45801;51.810;19.444;2023-04-19T00:34:10;99487.91;;;10.76;68.45
59939;BME280;45801;51.810;19.444;2023-04-19T00:36:37;99486.48;;;10.75;68.66
59939;BME280;45801;51.810;19.444;2023-04-19T00:39:04;99481.81;;;10.73;68.74
59939;BME280;45801;51.810;19.444;2023-04-19T00:41:31;99483.44;;;10.70;68.89
59939;BME280;45801;51.810;19.444;2023-04-19T00:43:58;99477.95;;;10.65;69.05
59939;BME280;45801;51.810;19.444;2023-04-19T00:46:24;99476.24;;;10.59;69.83
59939;BME280;45801;51.810;19.444;2023-04-19T00:48:51;99476.34;;;10.54;70.14
59939;BME280;45801;51.810;19.444;2023-04-19T00:51:19;99473.11;;;10.52;70.19
59939;BME280;45801;51.810;19.444;2023-04-19T00:53:46;99471.16;;;10.48;70.49
59939;BME280;45801;51.810;19.444;2023-04-19T00:56:13;99472.35;;;10.39;71.48
59939;BME280;45801;51.810;19.444;2023-04-19T00:58:40;99471.62;;;10.35;71.29
59939;BME280;45801;51.810;19.444;2023-04-19T01:01:07;99471.45;;;10.35;71.17
59939;BME280;45801;51.810;19.444;2023-04-19T01:03:34;99466.93;;;10.36;71.50
59939;BME280;45801;51.810;19.444;2023-04-19T01:06:01;99463.70;;;10.38;71.80
59939;BME280;45801;51.810;19.444;2023-04-19T01:08:28;99462.84;;;10.38;72.27
59939;BME280;45801;51.810;19.444;2023-04-19T01:10:54;99458.32;;;10.32;72.69
59939;BME280;45801;51.810;19.444;2023-04-19T01:13:21;99455.16;;;10.28;72.37
59939;BME280;45801;51.810;19.444;2023-04-19T01:15:47;99455.66;;;10.24;72.57
59939;BME280;45801;51.810;19.444;2023-04-19T01:18:14;99456.15;;;10.23;72.32
59939;BME280;45801;51.810;19.444;2023-04-19T01:20:41;99452.84;;;10.38;71.95
59939;BME280;45801;51.810;19.444;2023-04-19T01:23:07;99448.14;;;10.61;72.20
59939;BME280;45801;51.810;19.444;2023-04-19T01:25:37;99446.92;;;10.69;71.63
59939;BME280;45801;51.810;19.444;2023-04-19T01:28:04;99445.95;;;10.63;72.15
59939;BME280;45801;51.810;19.444;2023-04-19T01:30:31;99443.15;;;10.55;71.80
59939;BME280;45801;51.810;19.444;2023-04-19T01:32:58;99442.87;;;10.50;71.63
59939;BME280;45801;51.810;19.444;2023-04-19T01:35:24;99442.92;;;10.47;71.89
59939;BME280;45801;51.810;19.444;2023-04-19T01:37:51;99439.20;;;10.46;72.21
59939;BME280;45801;51.810;19.444;2023-04-19T01:40:24;99438.69;;;10.42;72.41
59939;BME280;45801;51.810;19.444;2023-04-19T01:42:51;99436.02;;;10.38;72.47
59939;BME280;45801;51.810;19.444;2023-04-19T01:45:18;99434.71;;;10.36;72.74
59939;BME280;45801;51.810;19.444;2023-04-19T01:47:44;99432.57;;;10.32;72.76
59939;BME280;45801;51.810;19.444;2023-04-19T01:50:11;99434.60;;;10.27;72.69
59939;BME280;45801;51.810;19.444;2023-04-19T01:52:37;99432.86;;;10.23;72.41
59939;BME280;45801;51.810;19.444;2023-04-19T01:55:04;99432.77;;;10.14;72.41
59939;BME280;45801;51.810;19.444;2023-04-19T01:57:30;99428.48;;;10.05;72.43
59939;BME280;45801;51.810;19.444;2023-04-19T01:59:57;99428.83;;;9.98;72.61
59939;BME280;45801;51.810;19.444;2023-04-19T02:02:23;99428.60;;;9.89;72.53
59939;BME280;45801;51.810;19.444;2023-04-19T02:04:50;99430.73;;;9.83;72.63
59939;BME280;45801;51.810;19.444;2023-04-19T02:07:16;99428.69;;;9.63;72.74
59939;BME280;45801;51.810;19.444;2023-04-19T02:09:43;99426.48;;;9.50;72.78
59939;BME280;45801;51.810;19.444;2023-04-19T02:12:09;99429.56;;;9.46;72.89
59939;BME280;45801;51.810;19.444;2023-04-19T02:14:36;99428.96;;;9.37;73.13
59939;BME280;45801;51.810;19.444;2023-04-19T02:17:02;99426.22;;;9.24;73.04
59939;BME280;45801;51.810;19.444;2023-04-19T02:19:29;99425.42;;;9.19;73.13
59939;BME280;45801;51.810;19.444;2023-04-19T02:21:55;99424.16;;;9.08;73.02
59939;BME280;45801;51.810;19.444;2023-04-19T02:24:23;99421.98;;;8.97;73.34
59939;BME280;45801;51.810;19.444;2023-04-19T02:26:51;99418.64;;;8.96;73.21
59939;BME280;45801;51.810;19.444;2023-04-19T02:29:17;99412.58;;;8.94;73.35
59939;BME280;45801;51.810;19.444;2023-04-19T02:31:44;99416.05;;;8.87;73.42
59939;BME280;45801;51.810;19.444;2023-04-19T02:34:11;99409.33;;;8.82;73.11
59939;BME280;45801;51.810;19.444;2023-04-19T02:36:38;99408.13;;;8.79;73.42
59939;BME280;45801;51.810;19.444;2023-04-19T02:39:04;99404.91;;;8.71;73.16
59939;BME280;45801;51.810;19.444;2023-04-19T02:41:31;99401.20;;;8.70;73.72
59939;BME280;45801;51.810;19.444;2023-04-19T02:43:57;99402.83;;;8.68;72.87
59939;BME280;45801;51.810;19.444;2023-04-19T02:46:24;99399.17;;;8.61;72.49
59939;BME280;45801;51.810;19.444;2023-04-19T02:48:50;99399.55;;;8.62;72.93
59939;BME280;45801;51.810;19.444;2023-04-19T02:51:28;99397.83;;;8.59;72.42
59939;BME280;45801;51.810;19.444;2023-04-19T02:53:54;99395.10;;;8.57;72.49
59939;BME280;45801;51.810;19.444;2023-04-19T02:56:21;99386.85;;;8.59;72.50
59939;BME280;45801;51.810;19.444;2023-04-19T02:58:47;99383.09;;;8.58;72.26
59939;BME280;45801;51.810;19.444;2023-04-19T03:01:14;99377.29;;;8.57;72.54
59939;BME280;45801;51.810;19.444;2023-04-19T03:03:40;99374.44;;;8.59;72.42
59939;BME280;45801;51.810;19.444;2023-04-19T03:06:07;99374.33;;;8.60;72.15
59939;BME280;45801;51.810;19.444;2023-04-19T03:08:34;99371.77;;;8.55;71.91
59939;BME280;45801;51.810;19.444;2023-04-19T03:11:01;99368.07;;;8.45;71.58
59939;BME280;45801;51.810;19.444;2023-04-19T03:13:27;99371.15;;;8.41;71.84
59939;BME280;45801;51.810;19.444;2023-04-19T03:15:54;99367.24;;;8.37;71.59
59939;BME280;45801;51.810;19.444;2023-04-19T03:18:21;99363.05;;;8.33;71.93
59939;BME280;45801;51.810;19.444;2023-04-19T03:20:48;99360.61;;;8.30;71.70
59939;BME280;45801;51.810;19.444;2023-04-19T03:23:15;99358.38;;;8.30;71.96
59939;BME280;45801;51.810;19.444;2023-04-19T03:25:41;99356.56;;;8.19;71.62
59939;BME280;45801;51.810;19.444;2023-04-19T03:28:08;99356.20;;;8.09;72.16
59939;BME280;45801;51.810;19.444;2023-04-19T03:30:34;99358.02;;;8.08;72.44
59939;BME280;45801;51.810;19.444;2023-04-19T03:33:01;99358.67;;;7.98;72.38
59939;BME280;45801;51.810;19.444;2023-04-19T03:35:27;99356.73;;;7.98;72.71
59939;BME280;45801;51.810;19.444;2023-04-19T03:37:56;99356.55;;;7.91;72.96
59939;BME280;45801;51.810;19.444;2023-04-19T03:40:22;99354.13;;;7.91;72.70
59939;BME280;45801;51.810;19.444;2023-04-19T03:42:48;99349.11;;;7.89;73.06
59939;BME280;45801;51.810;19.444;2023-04-19T03:45:15;99349.70;;;7.90;72.66
59939;BME280;45801;51.810;19.444;2023-04-19T03:47:41;99347.48;;;7.91;72.39
59939;BME280;45801;51.810;19.444;2023-04-19T03:50:08;99350.77;;;7.81;72.57
59939;BME280;45801;51.810;19.444;2023-04-19T03:52:35;99353.05;;;7.72;72.51
59939;BME280;45801;51.810;19.444;2023-04-19T03:55:01;99356.40;;;7.54;73.26
59939;BME280;45801;51.810;19.444;2023-04-19T03:57:28;99355.34;;;7.51;73.18
59939;BME280;45801;51.810;19.444;2023-04-19T03:59:54;99354.33;;;7.42;73.17
59939;BME280;45801;51.810;19.444;2023-04-19T04:02:20;99351.48;;;7.32;73.25
59939;BME280;45801;51.810;19.444;2023-04-19T04:04:52;99348.88;;;7.29;73.33
59939;BME280;45801;51.810;19.444;2023-04-19T04:07:19;99347.30;;;7.29;73.44
59939;BME280;45801;51.810;19.444;2023-04-19T04:09:46;99348.95;;;7.12;73.67
59939;BME280;45801;51.810;19.444;2023-04-19T04:12:13;99345.89;;;7.11;74.09
59939;BME280;45801;51.810;19.444;2023-04-19T04:14:40;99345.73;;;7.14;73.84
59939;BME280;45801;51.810;19.444;2023-04-19T04:17:06;99345.55;;;7.08;73.92
59939;BME280;45801;51.810;19.444;2023-04-19T04:19:33;99344.39;;;7.03;73.80
59939;BME280;45801;51.810;19.444;2023-04-19T04:21:59;99341.66;;;7.01;73.77
59939;BME280;45801;51.810;19.444;2023-04-19T04:24:26;99340.23;;;6.98;74.25
59939;BME280;45801;51.810;19.444;2023-04-19T04:26:53;99331.05;;;6.92;74.00
59939;BME280;45801;51.810;19.444;2023-04-19T04:29:19;99329.54;;;6.93;74.01
59939;BME280;45801;51.810;19.444;2023-04-19T04:31:46;99327.73;;;6.89;73.66
59939;BME280;45801;51.810;19.444;2023-04-19T04:34:12;99322.10;;;6.85;73.94
59939;BME280;45801;51.810;19.444;2023-04-19T04:36:39;99319.88;;;6.74;74.37
59939;BME280;45801;51.810;19.444;2023-04-19T04:39:07;99316.89;;;6.71;74.01
59939;BME280;45801;51.810;19.444;2023-04-19T04:41:35;99314.70;;;6.71;74.21
59939;BME280;45801;51.810;19.444;2023-04-19T04:44:02;99317.27;;;6.77;73.95
59939;BME280;45801;51.810;19.444;2023-04-19T04:46:30;99314.48;;;6.83;73.61
59939;BME280;45801;51.810;19.444;2023-04-19T04:48:56;99311.42;;;6.81;73.41
59939;BME280;45801;51.810;19.444;2023-04-19T04:51:24;99310.02;;;6.75;73.42
59939;BME280;45801;51.810;19.444;2023-04-19T04:53:51;99313.98;;;6.77;73.76
59939;BME280;45801;51.810;19.444;2023-04-19T04:56:17;99314.66;;;6.80;74.09
59939;BME280;45801;51.810;19.444;2023-04-19T04:58:45;99313.05;;;6.85;73.83
59939;BME280;45801;51.810;19.444;2023-04-19T05:01:11;99312.58;;;6.89;73.45
59939;BME280;45801;51.810;19.444;2023-04-19T05:03:37;99315.93;;;6.93;73.38
59939;BME280;45801;51.810;19.444;2023-04-19T05:06:04;99310.73;;;6.93;73.47
59939;BME280;45801;51.810;19.444;2023-04-19T05:08:31;99309.70;;;6.94;73.69
59939;BME280;45801;51.810;19.444;2023-04-19T05:10:57;99305.02;;;6.94;73.29
59939;BME280;45801;51.810;19.444;2023-04-19T05:13:25;99306.90;;;6.93;73.36
59939;BME280;45801;51.810;19.444;2023-04-19T05:15:51;99306.04;;;6.90;73.28
59939;BME280;45801;51.810;19.444;2023-04-19T05:18:18;99307.69;;;6.89;73.52
59939;BME280;45801;51.810;19.444;2023-04-19T05:20:44;99301.48;;;6.90;73.57
59939;BME280;45801;51.810;19.444;2023-04-19T05:23:12;99305.23;;;6.83;73.30
59939;BME280;45801;51.810;19.444;2023-04-19T05:25:38;99305.11;;;6.83;73.50
59939;BME280;45801;51.810;19.444;2023-04-19T05:28:05;99305.70;;;6.85;73.81
59939;BME280;45801;51.810;19.444;2023-04-19T05:30:31;99303.88;;;6.83;74.34
59939;BME280;45801;51.810;19.444;2023-04-19T05:32:57;99302.16;;;6.83;74.04
59939;BME280;45801;51.810;19.444;2023-04-19T05:35:24;99298.73;;;6.84;74.55
59939;BME280;45801;51.810;19.444;2023-04-19T05:37:51;99301.02;;;6.88;74.31
59939;BME280;45801;51.810;19.444;2023-04-19T05:40:17;99296.52;;;6.91;74.42
59939;BME280;45801;51.810;19.444;2023-04-19T05:42:45;99299.94;;;6.96;74.20
59939;BME280;45801;51.810;19.444;2023-04-19T05:45:12;99298.16;;;7.02;74.32
59939;BME280;45801;51.810;19.444;2023-04-19T05:47:41;99295.98;;;7.06;73.96
59939;BME280;45801;51.810;19.444;2023-04-19T05:50:07;99295.01;;;7.07;73.88
59939;BME280;45801;51.810;19.444;2023-04-19T05:52:34;99293.93;;;7.10;73.83
59939;BME280;45801;51.810;19.444;2023-04-19T05:55:00;99293.77;;;7.13;74.04
59939;BME280;45801;51.810;19.444;2023-04-19T05:57:27;99291.27;;;7.12;73.91
59939;BME280;45801;51.810;19.444;2023-04-19T05:59:53;99287.61;;;7.00;73.67
59939;BME280;45801;51.810;19.444;2023-04-19T06:02:20;99287.61;;;6.97;73.97
59939;BME280;45801;51.810;19.444;2023-04-19T06:04:47;99286.08;;;6.95;73.66
59939;BME280;45801;51.810;19.444;2023-04-19T06:07:14;99285.88;;;6.91;74.05
59939;BME280;45801;51.810;19.444;2023-04-19T06:09:41;99285.61;;;6.93;73.90
59939;BME280;45801;51.810;19.444;2023-04-19T06:12:07;99285.22;;;7.01;73.78
59939;BME280;45801;51.810;19.444;2023-04-19T06:14:34;99283.33;;;7.07;73.72
59939;BME280;45801;51.810;19.444;2023-04-19T06:17:00;99284.66;;;7.15;73.43
59939;BME280;45801;51.810;19.444;2023-04-19T06:19:26;99282.80;;;7.22;73.55
59939;BME280;45801;51.810;19.444;2023-04-19T06:21:53;99281.84;;;7.30;73.49
59939;BME280;45801;51.810;19.444;2023-04-19T06:24:20;99282.31;;;7.29;73.37
59939;BME280;45801;51.810;19.444;2023-04-19T06:26:47;99282.23;;;7.24;73.39
59939;BME280;45801;51.810;19.444;2023-04-19T06:29:14;99278.95;;;7.25;73.37
59939;BME280;45801;51.810;19.444;2023-04-19T06:31:41;99283.30;;;7.28;73.32
59939;BME280;45801;51.810;19.444;2023-04-19T06:34:08;99281.42;;;7.32;73.57
59939;BME280;45801;51.810;19.444;2023-04-19T06:36:35;99282.11;;;7.38;73.54
59939;BME280;45801;51.810;19.444;2023-04-19T06:39:02;99282.23;;;7.46;73.54
59939;BME280;45801;51.810;19.444;2023-04-19T06:41:28;99283.45;;;7.49;72.92
59939;BME280;45801;51.810;19.444;2023-04-19T06:43:55;99287.30;;;7.50;73.01
59939;BME280;45801;51.810;19.444;2023-04-19T06:46:21;99285.55;;;7.49;73.23
59939;BME280;45801;51.810;19.444;2023-04-19T06:48:49;99286.84;;;7.54;73.31
59939;BME280;45801;51.810;19.444;2023-04-19T06:51:16;99288.00;;;7.59;73.11
59939;BME280;45801;51.810;19.444;2023-04-19T06:53:42;99286.63;;;7.56;73.02
59939;BME280;45801;51.810;19.444;2023-04-19T06:56:11;99285.08;;;7.53;73.23
59939;BME280;45801;51.810;19.444;2023-04-19T06:58:38;99289.10;;;7.48;73.14
59939;BME280;45801;51.810;19.444;2023-04-19T07:01:05;99288.71;;;7.47;73.78
59939;BME280;45801;51.810;19.444;2023-04-19T07:03:31;99290.22;;;7.30;73.21
59939;BME280;45801;51.810;19.444;2023-04-19T07:05:58;99292.23;;;7.35;73.47
59939;BME280;45801;51.810;19.444;2023-04-19T07:08:25;99294.52;;;7.44;73.42
59939;BME280;45801;51.810;19.444;2023-04-19T07:10:51;99292.30;;;7.49;73.15
59939;BME280;45801;51.810;19.444;2023-04-19T07:13:18;99292.50;;;7.52;73.22
59939;BME280;45801;51.810;19.444;2023-04-19T07:15:45;99293.23;;;7.59;73.04
59939;BME280;45801;51.810;19.444;2023-04-19T07:18:11;99288.50;;;7.61;72.82
59939;BME280;45801;51.810;19.444;2023-04-19T07:20:40;99288.05;;;7.66;73.08
59939;BME280;45801;51.810;19.444;2023-04-19T07:23:10;99283.04;;;7.73;72.80
59939;BME280;45801;51.810;19.444;2023-04-19T07:25:36;99281.34;;;7.71;72.75
59939;BME280;45801;51.810;19.444;2023-04-19T07:28:03;99281.84;;;7.61;72.56
59939;BME280;45801;51.810;19.444;2023-04-19T07:30:31;99278.96;;;7.38;72.93
59939;BME280;45801;51.810;19.444;2023-04-19T07:32:57;99280.90;;;7.35;73.54
59939;BME280;45801;51.810;19.444;2023-04-19T07:35:24;99278.86;;;7.39;73.72
59939;BME280;45801;51.810;19.444;2023-04-19T07:37:53;99279.98;;;7.34;73.44
59939;BME280;45801;51.810;19.444;2023-04-19T07:40:19;99283.56;;;7.23;73.69
59939;BME280;45801;51.810;19.444;2023-04-19T07:42:46;99286.14;;;7.23;73.97
59939;BME280;45801;51.810;19.444;2023-04-19T07:45:12;99281.59;;;7.29;73.77
59939;BME280;45801;51.810;19.444;2023-04-19T07:47:39;99276.83;;;7.37;73.84
59939;BME280;45801;51.810;19.444;2023-04-19T07:50:06;99274.27;;;7.47;73.97
59939;BME280;45801;51.810;19.444;2023-04-19T07:52:33;99274.50;;;7.58;73.90
59939;BME280;45801;51.810;19.444;2023-04-19T07:55:00;99277.80;;;7.57;73.69
59939;BME280;45801;51.810;19.444;2023-04-19T07:57:37;99276.20;;;7.57;73.25
59939;BME280;45801;51.810;19.444;2023-04-19T08:00:04;99277.71;;;7.56;74.06
59939;BME280;45801;51.810;19.444;2023-04-19T08:02:30;99276.77;;;7.57;74.04
59939;BME280;45801;51.810;19.444;2023-04-19T08:04:57;99274.00;;;7.64;73.99
59939;BME280;45801;51.810;19.444;2023-04-19T08:07:23;99275.20;;;7.67;74.10
59939;BME280;45801;51.810;19.444;2023-04-19T08:09:51;99276.64;;;7.65;74.33
59939;BME280;45801;51.810;19.444;2023-04-19T08:12:17;99278.59;;;7.65;74.18
59939;BME280;45801;51.810;19.444;2023-04-19T08:14:44;99275.31;;;7.63;73.94
59939;BME280;45801;51.810;19.444;2023-04-19T08:17:11;99274.41;;;7.62;74.27
59939;BME280;45801;51.810;19.444;2023-04-19T08:19:38;99269.96;;;7.67;74.25
59939;BME280;45801;51.810;19.444;2023-04-19T08:22:04;99267.08;;;7.74;74.22
59939;BME280;45801;51.810;19.444;2023-04-19T08:24:31;99264.95;;;7.77;74.38
59939;BME280;45801;51.810;19.444;2023-04-19T08:26:57;99267.20;;;7.80;74.90
59939;BME280;45801;51.810;19.444;2023-04-19T08:29:24;99266.19;;;7.84;74.38
59939;BME280;45801;51.810;19.444;2023-04-19T08:31:52;99259.42;;;7.88;74.00
59939;BME280;45801;51.810;19.444;2023-04-19T08:34:18;99255.52;;;7.90;74.17
59939;BME280;45801;51.810;19.444;2023-04-19T08:36:45;99255.36;;;7.94;74.16
59939;BME280;45801;51.810;19.444;2023-04-19T08:39:11;99258.23;;;7.85;73.63
59939;BME280;45801;51.810;19.444;2023-04-19T08:41:38;99259.44;;;7.82;74.07
59939;BME280;45801;51.810;19.444;2023-04-19T08:44:05;99260.23;;;7.84;74.25
59939;BME280;45801;51.810;19.444;2023-04-19T08:46:32;99258.44;;;7.89;74.57
59939;BME280;45801;51.810;19.444;2023-04-19T08:48:59;99260.25;;;7.97;74.46
59939;BME280;45801;51.810;19.444;2023-04-19T08:51:26;99260.36;;;7.99;74.41
59939;BME280;45801;51.810;19.444;2023-04-19T08:53:55;99262.73;;;7.94;73.76
59939;BME280;45801;51.810;19.444;2023-04-19T08:56:22;99263.02;;;7.83;73.96
59939;BME280;45801;51.810;19.444;2023-04-19T08:58:48;99261.76;;;7.83;74.27
59939;BME280;45801;51.810;19.444;2023-04-19T09:01:15;99261.93;;;7.86;74.75
59939;BME280;45801;51.810;19.444;2023-04-19T09:03:42;99259.61;;;7.91;74.30
59939;BME280;45801;51.810;19.444;2023-04-19T09:06:10;99261.31;;;7.97;74.47
59939;BME280;45801;51.810;19.444;2023-04-19T09:08:38;99261.36;;;8.08;74.41
59939;BME280;45801;51.810;19.444;2023-04-19T09:11:05;99262.02;;;8.17;74.33
59939;BME280;45801;51.810;19.444;2023-04-19T09:13:32;99261.52;;;8.18;73.78
59939;BME280;45801;51.810;19.444;2023-04-19T09:15:59;99259.80;;;8.11;73.62
59939;BME280;45801;51.810;19.444;2023-04-19T09:18:25;99262.84;;;8.06;73.52
59939;BME280;45801;51.810;19.444;2023-04-19T09:20:52;99258.61;;;7.99;73.91
59939;BME280;45801;51.810;19.444;2023-04-19T09:23:24;99261.02;;;7.98;74.19
59939;BME280;45801;51.810;19.444;2023-04-19T09:25:59;99261.20;;;8.01;74.43
59939;BME280;45801;51.810;19.444;2023-04-19T09:28:27;99258.18;;;8.04;74.28
59939;BME280;45801;51.810;19.444;2023-04-19T09:30:54;99254.72;;;8.07;74.23
59939;BME280;45801;51.810;19.444;2023-04-19T09:33:47;99259.56;;;8.10;74.26
59939;BME280;45801;51.810;19.444;2023-04-19T09:36:26;99260.75;;;8.13;74.31
59939;BME280;45801;51.810;19.444;2023-04-19T09:38:53;99257.48;;;8.20;74.43
59939;BME280;45801;51.810;19.444;2023-04-19T09:41:20;99257.14;;;8.27;73.70
59939;BME280;45801;51.810;19.444;2023-04-19T09:43:46;99260.03;;;8.32;74.00
59939;BME280;45801;51.810;19.444;2023-04-19T09:46:32;99261.77;;;8.39;73.82
59939;BME280;45801;51.810;19.444;2023-04-19T09:49:22;99262.06;;;8.43;73.56
59939;BME280;45801;51.810;19.444;2023-04-19T09:51:53;99262.64;;;8.45;73.46
59939;BME280;45801;51.810;19.444;2023-04-19T09:54:22;99264.31;;;8.30;72.63
59939;BME280;45801;51.810;19.444;2023-04-19T09:56:50;99263.45;;;8.27;72.95
59939;BME280;45801;51.810;19.444;2023-04-19T09:59:17;99264.27;;;8.26;73.20
59939;BME280;45801;51.810;19.444;2023-04-19T10:01:46;99263.26;;;8.30;73.53
59939;BME280;45801;51.810;19.444;2023-04-19T10:04:14;99264.17;;;8.34;73.58
59939;BME280;45801;51.810;19.444;2023-04-19T10:06:48;99269.38;;;8.40;73.53
59939;BME280;45801;51.810;19.444;2023-04-19T10:09:17;99265.81;;;8.42;73.13
59939;BME280;45801;51.810;19.444;2023-04-19T10:11:48;99263.07;;;8.46;73.38
59939;BME280;45801;51.810;19.444;2023-04-19T10:14:18;99260.88;;;8.52;73.30
59939;BME280;45801;51.810;19.444;2023-04-19T10:16:45;99261.77;;;8.58;73.35
59939;BME280;45801;51.810;19.444;2023-04-19T10:19:15;99263.11;;;8.57;72.89
59939;BME280;45801;51.810;19.444;2023-04-19T10:21:43;99262.61;;;8.54;72.97
59939;BME280;45801;51.810;19.444;2023-04-19T10:24:13;99262.31;;;8.52;72.89
59939;BME280;45801;51.810;19.444;2023-04-19T10:32:16;99258.86;;;8.56;73.35
59939;BME280;45801;51.810;19.444;2023-04-19T10:34:44;99260.47;;;8.60;73.54
59939;BME280;45801;51.810;19.444;2023-04-19T10:37:16;99262.63;;;8.65;73.39
59939;BME280;45801;51.810;19.444;2023-04-19T10:39:43;99261.74;;;8.58;72.95
59939;BME280;45801;51.810;19.444;2023-04-19T10:42:10;99264.40;;;8.48;73.24
59939;BME280;45801;51.810;19.444;2023-04-19T10:44:38;99263.87;;;8.48;73.71
59939;BME280;45801;51.810;19.444;2023-04-19T10:47:04;99266.66;;;8.58;73.67
59939;BME280;45801;51.810;19.444;2023-04-19T10:49:43;99270.70;;;8.65;73.28
59939;BME280;45801;51.810;19.444;2023-04-19T10:52:28;99270.58;;;8.73;73.29
59939;BME280;45801;51.810;19.444;2023-04-19T10:54:55;99267.59;;;8.77;72.93
59939;BME280;45801;51.810;19.444;2023-04-19T10:57:22;99264.63;;;8.70;72.93
59939;BME280;45801;51.810;19.444;2023-04-19T11:00:26;99265.02;;;8.60;73.00
59939;BME280;45801;51.810;19.444;2023-04-19T11:02:58;99263.61;;;8.56;73.61
59939;BME280;45801;51.810;19.444;2023-04-19T11:05:24;99262.48;;;8.62;73.59
59939;BME280;45801;51.810;19.444;2023-04-19T11:07:50;99262.54;;;8.63;73.51
59939;BME280;45801;51.810;19.444;2023-04-19T11:10:28;99261.27;;;8.65;73.61
59939;BME280;45801;51.810;19.444;2023-04-19T11:12:56;99258.64;;;8.72;73.79
59939;BME280;45801;51.810;19.444;2023-04-19T11:15:23;99263.39;;;8.80;73.26
59939;BME280;45801;51.810;19.444;2023-04-19T11:17:50;99263.13;;;8.85;73.01
59939;BME280;45801;51.810;19.444;2023-04-19T11:20:20;99263.77;;;8.84;73.09
59939;BME280;45801;51.810;19.444;2023-04-19T11:22:48;99265.20;;;8.92;73.24
59939;BME280;45801;51.810;19.444;2023-04-19T11:25:19;99261.39;;;9.03;73.29
59939;BME280;45801;51.810;19.444;2023-04-19T11:27:48;99262.30;;;9.14;72.97
59939;BME280;45801;51.810;19.444;2023-04-19T11:30:17;99263.25;;;9.23;72.67
59939;BME280;45801;51.810;19.444;2023-04-19T11:32:46;99262.83;;;9.32;72.48
59939;BME280;45801;51.810;19.444;2023-04-19T11:35:14;99264.08;;;9.40;71.84
59939;BME280;45801;51.810;19.444;2023-04-19T11:37:40;99263.38;;;9.44;71.40
59939;BME280;45801;51.810;19.444;2023-04-19T11:40:07;99267.33;;;9.46;71.49
59939;BME280;45801;51.810;19.444;2023-04-19T11:42:34;99267.91;;;9.47;70.87
59939;BME280;45801;51.810;19.444;2023-04-19T11:45:01;99267.92;;;9.44;70.30
59939;BME280;45801;51.810;19.444;2023-04-19T11:47:28;99269.25;;;9.38;70.65
59939;BME280;45801;51.810;19.444;2023-04-19T11:49:54;99271.24;;;9.40;71.13
59939;BME280;45801;51.810;19.444;2023-04-19T11:52:23;99270.95;;;9.41;71.12
59939;BME280;45801;51.810;19.444;2023-04-19T11:54:51;99269.89;;;9.33;69.49
59939;BME280;45801;51.810;19.444;2023-04-19T11:57:28;99272.83;;;9.32;70.55
59939;BME280;45801;51.810;19.444;2023-04-19T12:00:06;99274.23;;;9.29;69.97
59939;BME280;45801;51.810;19.444;2023-04-19T12:02:41;99270.72;;;9.29;70.62
59939;BME280;45801;51.810;19.444;2023-04-19T12:05:11;99271.36;;;9.31;71.06
59939;BME280;45801;51.810;19.444;2023-04-19T12:08:06;99266.31;;;9.35;71.19
59939;BME280;45801;51.810;19.444;2023-04-19T12:10:36;99265.73;;;9.37;70.56
59939;BME280;45801;51.810;19.444;2023-04-19T12:13:16;99264.05;;;9.35;69.95
59939;BME280;45801;51.810;19.444;2023-04-19T12:15:44;99263.98;;;9.37;70.80
59939;BME280;45801;51.810;19.444;2023-04-19T12:18:11;99265.33;;;9.40;71.04
59939;BME280;45801;51.810;19.444;2023-04-19T12:20:46;99264.64;;;9.44;71.21
59939;BME280;45801;51.810;19.444;2023-04-19T12:23:13;99262.79;;;9.49;71.66
59939;BME280;45801;51.810;19.444;2023-04-19T12:25:42;99257.25;;;9.58;71.47
59939;BME280;45801;51.810;19.444;2023-04-19T12:28:09;99259.11;;;9.64;71.40
59939;BME280;45801;51.810;19.444;2023-04-19T12:30:35;99263.26;;;9.70;71.37
59939;BME280;45801;51.810;19.444;2023-04-19T12:33:02;99263.33;;;9.75;71.41
59939;BME280;45801;51.810;19.444;2023-04-19T12:35:29;99264.59;;;9.77;70.48
59939;BME280;45801;51.810;19.444;2023-04-19T12:37:57;99261.19;;;9.79;70.75
59939;BME280;45801;51.810;19.444;2023-04-19T12:40:25;99263.55;;;9.84;70.85
59939;BME280;45801;51.810;19.444;2023-04-19T12:42:52;99263.45;;;9.86;70.32
59939;BME280;45801;51.810;19.444;2023-04-19T12:45:19;99264.92;;;9.87;70.56
59939;BME280;45801;51.810;19.444;2023-04-19T12:47:47;99268.94;;;9.91;70.39
59939;BME280;45801;51.810;19.444;2023-04-19T12:50:14;99265.34;;;9.92;70.27
59939;BME280;45801;51.810;19.444;2023-04-19T12:52:41;99267.68;;;9.94;70.46
59939;BME280;45801;51.810;19.444;2023-04-19T12:55:08;99271.70;;;9.98;70.50
59939;BME280;45801;51.810;19.444;2023-04-19T12:57:35;99271.07;;;9.99;70.49
59939;BME280;45801;51.810;19.444;2023-04-19T13:00:01;99270.83;;;10.01;70.36
59939;BME280;45801;51.810;19.444;2023-04-19T13:02:29;99271.84;;;10.04;70.39
59939;BME280;45801;51.810;19.444;2023-04-19T13:04:56;99267.80;;;10.08;70.12
59939;BME280;45801;51.810;19.444;2023-04-19T13:07:22;99271.63;;;10.12;69.93